Rye Patch, Nevada
Current Conditions -  °F | °C
As of 8:53 PM on Saturday 25 Oct 2014 (Local Time) from KLOL Reporting Station
Clear Clear  
Wind Chill: 52°   Ceiling: Unl
Heat Index: 52°   Visibility: 10mi
Dew Point: 28°   Wind: 17mph
Humidity: 40%   Direction: 280°W
Pressure: 30.02"   Gusts: NA
Location:  40.3545°N, 118.628°W
Report Text: KLOL 260353Z AUTO 28015KT 10SM CLR 11/M02 A3002 RMK AO2 SLP159 T01111022
Loading
Personal Weather Stations






























Interactive Weather Map
Tropical Storm Tracking
New forecast layout! Learn more

10-Day Weather Forecast

Advertisements
Track Severe Weather on mobile